Flight Track Log - Related Links

Times and Time Zones

All times are in EDT time to prevent confusion due to time zone crossing. See the JTA626 flight status page for this flight to view local times or setup timezone preferences in your user account.


Time Position Orientation Groundspeed Altitude Reporting Facility
EDT Latitude Longitude Course Direction KTS MPH feet Rate Location/Type
Thu 05:27:00 AM 24.5016 124.4708 59° Northeast  Level Estimated
Thu 05:28:00 AM 24.5538 124.5656 59° Northeast  Level Estimated
Thu 05:29:00 AM 24.6060 124.6604 59° Northeast  Level Estimated
Thu 05:30:00 AM 24.6581 124.7553 59° Northeast  Level Estimated
Thu 05:31:00 AM 24.7102 124.8503 59° Northeast  Level Estimated
Thu 05:32:00 AM 24.7622 124.9454 59° Northeast  Level Estimated
Thu 05:33:00 AM 24.8141 125.0406 59° Northeast  Level Estimated
Thu 05:34:00 AM 24.8660 125.1358 59° Northeast  Level Estimated
Thu 05:35:00 AM 24.9178 125.2311 59° Northeast  Level Estimated
Thu 05:36:00 AM 24.9696 125.3265 59° Northeast  Level Estimated
Thu 05:37:00 AM 25.0228 125.4247 59° Northeast  Level Estimated
Thu 05:38:00 AM 25.0759 125.5230 59° Northeast  Level Estimated
Thu 05:39:00 AM 25.1305 125.6243 59° Northeast  Level Estimated
Thu 05:40:00 AM 25.1850 125.7256 59° Northeast  Level Estimated
Thu 05:41:00 AM 25.2395 125.8271 59° Northeast  Level Estimated
Thu 05:42:00 AM 25.2939 125.9286 59° Northeast  Level Estimated
Thu 05:43:00 AM 25.3482 126.0303 59° Northeast  Level Estimated
Thu 05:44:00 AM 25.4025 126.1320 59° Northeast  Level Estimated
Thu 05:45:00 AM 25.4566 126.2338 59° Northeast  Level Estimated
Thu 05:46:00 AM 25.5107 126.3357 60° Northeast  Level Estimated
Thu 05:47:00 AM 25.5648 126.4378 60° Northeast  Level Estimated
Thu 05:48:00 AM 25.6188 126.5398 60° Northeast  Level Estimated
Thu 05:49:00 AM 25.6819 126.6597 60° Northeast  Level Estimated
Thu 05:50:00 AM 25.7450 126.7796 60° Northeast  Level Estimated
Thu 05:51:00 AM 25.8080 126.8997 60° Northeast  Level Estimated
Thu 05:52:00 AM 25.8709 127.0199 60° Northeast  Level Estimated
Thu 05:53:00 AM 25.9337 127.1402 60° Northeast  Level Estimated
Thu 05:54:00 AM 25.9964 127.2606 60° Northeast  Level Estimated
Thu 05:55:00 AM 26.0590 127.3812 60° Northeast  Level Estimated
Thu 05:56:00 AM 26.1215 127.5019 60° Northeast  Level Estimated
Thu 05:57:00 AM 26.1839 127.6228 60° Northeast  Level Estimated
Thu 05:58:00 AM 26.1958 127.6459 60° Northeast  Level Estimated
Thu 05:59:00 AM 26.1958 127.6459 347° North  Level Estimated
Thu 06:00:00 AM 26.1958 127.6459 347° North  Level Estimated
Thu 06:01:00 AM 26.1958 127.6459 347° North  Level Estimated
Thu 06:02:00 AM 26.1958 127.6459 347° North  Level Estimated
Thu 06:03:00 AM 26.1958 127.6459 347° North  Level Estimated
Thu 06:04:00 AM 26.1958 127.6459 347° North  Level Estimated
Thu 06:05:00 AM 26.1958 127.6459 347° North  Level Estimated
Thu 06:06:00 AM 26.1958 127.6459 347° North  Level Estimated
Thu 06:07:00 AM 26.1958 127.6459 347° North  Level Estimated
Thu 06:08:00 AM 26.1958 127.6459 347° North  Level Estimated
Thu 06:09:00 AM 26.1958 127.6459 347° North  Level Estimated

Login

Don't have an account? Register now (free) for customized features, flight alerts, and more!